ADDS METAR Data INFO
IDs: Format: Raw Decoded Include TAF

Data at: 0739 UTC 23 Apr 2018

KRBD 230653Z AUTO 29007KT 10SM CLR 12/08 A3003 RMK AO2 SLP165 T01220078
KRBD 230553Z AUTO 28008KT 10SM CLR 13/08 A3002 RMK AO2 SLP163 T01330078 10189 20128 402060111 58005
KRBD 230453Z AUTO 28006KT 10SM CLR 14/08 A3003 RMK AO2 SLP166 T01390078
KRBD 230353Z AUTO 28006KT 10SM CLR 14/08 A3004 RMK AO2 SLP169 T01390078
KRBD 230253Z AUTO 30005KT 10SM CLR 14/07 A3004 RMK AO2 SLP168 T01440072 53008
KRBD 230153Z AUTO 31007KT 10SM CLR 16/07 A3002 RMK AO2 SLP163 T01560072
KRBD 230053Z 33009KT 10SM FEW050 17/07 A3002 RMK AO2 SLP161 T01720067
KRBD 222353Z 32013KT 10SM FEW055 19/07 A3001 RMK AO2 SLP160 T01890067 10206 20172 55002
KRBD 222253Z 34015KT 10SM SCT050 20/07 A3001 RMK AO2 SLP158 T02000067
KRBD 222153Z 34011G22KT 10SM OVC050 19/07 A3001 RMK AO2 SLP160 T01940067
KRBD 222053Z 29014G20KT 10SM BKN049 19/07 A3002 RMK AO2 PK WND 31027/2026 SLP162 T01940072 56022
KRBD 221953Z 30016G23KT 10SM SCT044 19/07 A3004 RMK AO2 SLP169 T01940067
KRBD 221853Z 32017G23KT 10SM BKN042 18/07 A3006 RMK AO2 SLP177 T01830072
KRBD 221753Z 33015G24KT 10SM BKN039 18/07 A3009 RMK AO2 SLP185 T01780072 10178 20111 50000
KRBD 221653Z 33015G22KT 10SM SCT033 17/07 A3009 RMK AO2 SLP188 T01720067
KRBD 221553Z 34013KT 10SM SCT030 14/06 A3010 RMK AO2 SLP189 T01390061
KRBD 221528Z 34015KT 10SM SCT026 14/06 A3009 RMK AO2 T01390061
KRBD 221516Z 32015G21KT 10SM BKN026 14/07 A3009 RMK AO2 T01440067
KRBD 221453Z 34016KT 10SM SCT026 14/07 A3009 RMK AO2 SLP185 T01390067 51006
KRBD 221353Z 33014G22KT 10SM SCT020 12/07 A3008 RMK AO2 SLP183 T01170067
KRBD 221329Z 34016G23KT 10SM FEW025 12/07 A3008 RMK AO2 T01170072
KRBD 221253Z 33015KT 10SM SCT018 OVC022 12/07 A3008 RMK AO2 SLP182 T01170072
KRBD 221153Z 33013KT 10SM OVC020 12/08 A3007 RMK AO2 SLP178 70027 T01170083 10122 20117 53009
KRBD 221053Z AUTO 33010KT 10SM OVC022 12/08 A3005 RMK AO2 SLP172 T01170083
KRBD 220953Z AUTO 34013G19KT 10SM OVC016 12/08 A3004 RMK AO2 SLP168 T01170083
KRBD 220853Z AUTO 33017G21KT 10SM OVC018 12/08 A3004 RMK AO2 SLP169 T01170083 51006
KRBD 220813Z AUTO 33016KT 10SM OVC015 12/09 A3003 RMK AO2 T01170089
KRBD 220753Z AUTO 33014KT 10SM BKN013 OVC019 12/09 A3003 RMK AO2 SLP166 T01170089
KRBD 220734Z AUTO 33014KT 10SM OVC016 12/09 A3004 RMK AO2 T01170089
KRBD 220653Z AUTO 33014KT 10SM OVC012 12/09 A3003 RMK AO2 SLP165 T01170094
KRBD 220640Z AUTO 33012KT 10SM BKN012 12/10 A3003 RMK AO2 T01170100
KRBD 220553Z AUTO 34014KT 10SM SCT012 BKN033 12/11 A3002 RMK AO2 SLP162 60015 T01220106 10178 20122 401940122 58004
KRBD 220453Z AUTO 33014KT 10SM OVC011 13/11 A3004 RMK AO2 PK WND 31026/0405 SLP169 T01280111
KRBD 220415Z AUTO 32018G25KT 10SM SCT004 BKN011 OVC018 13/11 A3004 RMK AO2 PK WND 31026/0405 T01280111
KRBD 220353Z AUTO 33010KT 4SM BR OVC002 13/12 A3003 RMK AO2 RAE02 SLP165 P0000 T01280122
KRBD 220348Z AUTO 32015KT 4SM BR OVC002 13/12 A3003 RMK AO2 RAE02 P0000
KRBD 220339Z AUTO 32016KT 2 1/2SM BR OVC002 13/12 A3003 RMK AO2 RAE02 P0000 T01280122
KRBD 220301Z AUTO 32016KT 1 1/4SM -RA BR OVC002 14/13 A3000 RMK AO2 P0000 T01390128
KRBD 220253Z AUTO 32018G22KT 2SM -RA BR OVC002 14/14 A2999 RMK AO2 RAB38 SLP153 P0000 60015 T01440139 53028
KRBD 220227Z AUTO 33014KT 2SM BR OVC003 16/15 A2998 RMK AO2 CIG 002V005 T01610150
KRBD 220153Z AUTO 35005KT 5SM BR OVC004 17/16 A2995 RMK AO2 LTG DSNT E AND SE RAE12 SLP137 P0001 T01720156
KRBD 220101Z 06003KT 3SM -RA BR BKN003 OVC055 17/17 A2993 RMK AO2 LTG DSNT SE AND S P0001 T01720167
KRBD 220053Z 09009KT 2 1/2SM -RA BR BKN004 OVC055 17/16 A2992 RMK AO2 LTG DSNT SE AND S RAB2359 TSB02E44 SLP127 P0014 T01720161
KRBD 220050Z 07010KT 2 1/2SM VCTS -RA BR BKN004 OVC039 17/16 A2991 RMK AO2 LTG DSNT SE AND S RAB2359 TSB02E44 P0014
KRBD 220029Z 02007KT 2 1/2SM TSRA BR BKN004 BKN016 OVC036 17/16 A2993 RMK AO2 LTG DSNT SE-SW RAB2359 TSB02 P0011 T01720161
KRBD 220018Z 03006KT 2 1/2SM +TSRA BR SCT004 BKN029 OVC045 17/16 A2993 RMK AO2 LTG DSNT S-NW RAB2359 TSB02 P0006 T01720161
KRBD 220002Z 03006KT 4SM -TSRA BR BKN004 BKN029 OVC037 18/16 A2992 RMK AO2 LTG DSNT S-NW RAB2359 TSB02 CIG 004V010 P0000 T01780161
KRBD 212353Z 05008KT 4SM BR OVC004 18/16 A2990 RMK AO2 LTG DSNT SW-NW SLP123 60001 T01780161 10194 20156 51004
KRBD 212311Z 08010KT 4SM BR BKN004 OVC013 18/16 A2988 RMK AO2 LTG DSNT W AND NW T01780161
KRBD 212307Z 08009KT 4SM BR SCT005 OVC012 18/17 A2988 RMK AO2 LTG DSNT W AND NW T01780167
KRBD 212253Z 08010KT 7SM OVC012 19/17 A2989 RMK AO2 LTG DSNT W AND NW SLP119 T01890167
KRBD 212153Z 00000KT 8SM OVC010 19/17 A2991 RMK AO2 SLP123 T01890167
KRBD 212132Z VRB05KT 8SM OVC010 19/17 A2989 RMK AO2 CIG 008V014 T01890167
KRBD 212053Z 18008KT 10SM OVC009 18/16 A2989 RMK AO2 CIG 007V011 SLP118 60001 T01830161 58016
KRBD 211953Z 16010KT 7SM OVC008 18/16 A2992 RMK AO2 CIG 006V011 SLP128 T01780161